createdAt,value
2023-02-22T00:01:35.381Z,75.55
2023-02-22T00:04:07.116Z,75.11
2023-02-22T00:06:34.159Z,75.17
2023-02-22T00:09:02.461Z,75.21
2023-02-22T00:11:29.479Z,75.47
2023-02-22T00:14:01.832Z,75.63
2023-02-22T00:16:29.928Z,75.90
2023-02-22T00:19:01.286Z,75.82
2023-02-22T00:21:31.245Z,75.51
2023-02-22T00:23:57.852Z,75.64
2023-02-22T00:26:26.076Z,75.21
2023-02-22T00:29:19.543Z,74.88
2023-02-22T00:31:51.219Z,75.10
2023-02-22T00:34:18.863Z,75.17
2023-02-22T00:36:48.682Z,75.45
2023-02-22T00:39:16.546Z,75.47
2023-02-22T00:41:43.528Z,75.87
2023-02-22T00:44:10.320Z,75.89
2023-02-22T00:46:37.413Z,76.30
2023-02-22T00:49:06.556Z,76.71
2023-02-22T00:51:35.702Z,76.80
2023-02-22T00:54:10.450Z,76.79
2023-02-22T00:56:40.010Z,77.21
2023-02-22T00:59:12.157Z,77.02
2023-02-22T01:01:43.590Z,77.07
2023-02-22T01:04:15.729Z,77.13
2023-02-22T01:06:42.468Z,77.18
2023-02-22T01:09:11.372Z,77.18
2023-02-22T01:11:38.060Z,77.66
2023-02-22T01:14:04.844Z,77.35
2023-02-22T01:16:35.616Z,77.36
2023-02-22T01:19:02.364Z,77.83
2023-02-22T01:21:33.682Z,77.73
2023-02-22T01:24:00.456Z,77.52
2023-02-22T01:26:27.166Z,77.50
2023-02-22T01:28:53.908Z,77.28
2023-02-22T01:31:22.070Z,77.14
2023-02-22T01:33:48.789Z,77.55
2023-02-22T01:36:15.880Z,77.42
2023-02-22T01:38:42.954Z,77.56
2023-02-22T01:41:12.463Z,77.62
2023-02-22T01:43:41.752Z,77.57
2023-02-22T01:46:26.893Z,77.90
2023-02-22T01:49:05.623Z,77.95
2023-02-22T01:51:39.082Z,77.82
2023-02-22T01:54:20.921Z,77.68
2023-02-22T01:57:06.423Z,77.60
2023-02-22T01:59:36.740Z,77.57
2023-02-22T02:02:04.663Z,77.52
2023-02-22T02:04:38.989Z,77.55
2023-02-22T02:07:07.503Z,77.59
2023-02-22T02:09:46.790Z,77.47
2023-02-22T02:12:25.664Z,77.38
2023-02-22T02:14:52.794Z,77.03
2023-02-22T02:17:23.044Z,77.47
2023-02-22T02:20:00.933Z,77.36
2023-02-22T02:23:16.518Z,77.41
2023-02-22T02:26:10.976Z,77.45
2023-02-22T02:29:10.834Z,77.29
2023-02-22T02:32:08.665Z,77.55
2023-02-22T02:34:58.821Z,77.64
2023-02-22T02:37:27.602Z,77.79
2023-02-22T02:40:12.264Z,77.67
2023-02-22T02:42:46.298Z,77.83
2023-02-22T02:45:24.036Z,78.07
2023-02-22T02:48:06.543Z,78.21
2023-02-22T02:50:48.702Z,78.35
2023-02-22T02:53:24.401Z,78.48
2023-02-22T02:55:53.722Z,78.47
2023-02-22T02:58:25.471Z,78.42
2023-02-22T03:00:56.115Z,78.43
2023-02-22T03:03:29.293Z,78.75
2023-02-22T03:06:02.100Z,78.67
2023-02-22T03:09:27.751Z,79.21
2023-02-22T03:12:01.861Z,78.98
2023-02-22T03:17:36.879Z,79.04
2023-02-22T03:20:12.400Z,78.99
2023-02-22T03:22:59.445Z,79.21
2023-02-22T03:25:47.270Z,79.26
2023-02-22T03:31:18.858Z,79.25
2023-02-22T03:34:23.966Z,79.23
2023-02-22T03:37:02.393Z,79.28
2023-02-22T03:39:35.759Z,79.30
2023-02-22T03:42:14.708Z,79.61
2023-02-22T03:44:48.735Z,79.76
2023-02-22T03:47:24.772Z,79.93
2023-02-22T03:50:10.061Z,80.29
2023-02-22T03:52:37.740Z,80.39
2023-02-22T03:55:11.243Z,80.26
2023-02-22T03:57:41.740Z,80.43
2023-02-22T04:00:11.235Z,80.73
2023-02-22T04:02:42.508Z,80.60
2023-02-22T04:05:17.890Z,80.57
2023-02-22T04:07:47.825Z,80.64
2023-02-22T04:10:16.135Z,81.13
2023-02-22T04:12:52.586Z,81.31
2023-02-22T04:15:34.716Z,81.45
2023-02-22T04:18:10.152Z,81.84
2023-02-22T04:20:39.393Z,81.68
2023-02-22T04:23:08.571Z,82.16
2023-02-22T04:25:35.298Z,81.83
2023-02-22T04:28:04.391Z,81.61
2023-02-22T04:30:45.136Z,81.76
2023-02-22T04:33:19.638Z,82.29
2023-02-22T04:35:50.947Z,82.23
2023-02-22T04:38:17.691Z,81.91
2023-02-22T04:40:44.317Z,81.76
2023-02-22T04:43:13.872Z,81.96
2023-02-22T04:45:41.029Z,81.71
2023-02-22T04:48:08.014Z,81.82
2023-02-22T04:50:35.236Z,81.78
2023-02-22T04:53:04.555Z,81.72
2023-02-22T04:55:31.221Z,81.91
2023-02-22T04:58:00.444Z,81.73
2023-02-22T05:00:27.190Z,81.63
2023-02-22T05:02:53.884Z,81.83
2023-02-22T05:05:21.776Z,82.35
2023-02-22T05:07:51.848Z,82.50
2023-02-22T05:10:18.788Z,82.44
2023-02-22T05:12:48.148Z,82.42
2023-02-22T05:15:19.119Z,82.35
2023-02-22T05:17:47.554Z,81.93
2023-02-22T05:20:35.422Z,81.90
2023-02-22T05:23:05.481Z,81.72
2023-02-22T05:25:33.362Z,81.76
2023-02-22T05:28:01.475Z,81.76
2023-02-22T05:30:30.195Z,81.87
2023-02-22T05:32:59.037Z,81.87
2023-02-22T05:35:25.912Z,81.79
2023-02-22T05:37:52.615Z,81.74
2023-02-22T05:40:22.515Z,82.04
2023-02-22T05:42:59.913Z,81.90
2023-02-22T05:45:27.676Z,81.72
2023-02-22T05:47:57.632Z,81.71
2023-02-22T05:50:25.084Z,81.63
2023-02-22T05:52:54.781Z,81.62
2023-02-22T05:55:26.363Z,81.83
2023-02-22T05:57:53.403Z,82.20
2023-02-22T06:00:30.609Z,81.82
2023-02-22T06:03:06.849Z,81.83
2023-02-22T06:05:38.855Z,82.02
2023-02-22T06:08:09.996Z,81.95
2023-02-22T06:10:36.630Z,81.59
2023-02-22T06:13:04.347Z,81.59
2023-02-22T06:15:31.657Z,81.32
2023-02-22T06:17:59.105Z,81.50
2023-02-22T06:20:33.249Z,81.58
2023-02-22T06:23:04.824Z,81.88
2023-02-22T06:25:36.960Z,81.79
2023-02-22T06:28:06.773Z,81.89
2023-02-22T06:30:34.092Z,81.51
2023-02-22T06:33:00.925Z,81.46
2023-02-22T06:35:27.678Z,81.41
2023-02-22T06:37:54.542Z,81.02
2023-02-22T06:40:23.575Z,80.61
2023-02-22T06:42:50.325Z,80.38
2023-02-22T06:45:18.189Z,80.25
2023-02-22T06:47:47.589Z,80.03
2023-02-22T06:50:28.481Z,79.80
2023-02-22T06:52:57.909Z,79.98
2023-02-22T06:55:28.726Z,79.93
2023-02-22T06:57:58.447Z,79.46
2023-02-22T07:00:27.226Z,79.14
2023-02-22T07:03:00.357Z,78.47
2023-02-22T07:05:29.087Z,78.17
2023-02-22T07:08:11.309Z,77.63
2023-02-22T07:10:40.099Z,77.51
2023-02-22T07:13:08.847Z,77.08
2023-02-22T07:15:40.251Z,76.85
2023-02-22T07:18:07.494Z,76.26
2023-02-22T07:20:42.743Z,76.16
2023-02-22T07:23:11.991Z,75.58
2023-02-22T07:25:38.913Z,74.91
2023-02-22T07:28:06.018Z,74.44
2023-02-22T07:30:36.962Z,73.53
2023-02-22T07:33:09.466Z,73.08
2023-02-22T07:35:37.632Z,72.70
2023-02-22T07:38:06.378Z,72.10
2023-02-22T07:40:37.024Z,71.59
2023-02-22T07:43:23.839Z,71.58
2023-02-22T07:45:52.002Z,71.10
2023-02-22T07:48:21.115Z,70.79
2023-02-22T07:50:47.758Z,70.32
2023-02-22T07:53:33.676Z,69.79
2023-02-22T07:56:01.535Z,69.71
2023-02-22T07:58:29.855Z,69.56
2023-02-22T08:00:57.003Z,69.38
2023-02-22T08:03:26.751Z,69.06
2023-02-22T08:05:57.894Z,68.80
2023-02-22T08:08:27.440Z,68.93
2023-02-22T08:10:53.927Z,67.70
2023-02-22T08:13:22.292Z,67.66
2023-02-22T08:15:52.028Z,67.38
2023-02-22T08:18:19.844Z,67.00
2023-02-22T08:20:47.607Z,66.68
2023-02-22T08:23:15.377Z,66.35
2023-02-22T08:25:42.169Z,66.09
2023-02-22T08:28:10.487Z,65.80
2023-02-22T08:30:40.282Z,65.34
2023-02-22T08:33:07.200Z,64.36
2023-02-22T08:35:34.102Z,63.86
2023-02-22T08:38:06.422Z,63.58
2023-02-22T08:40:39.390Z,63.86
2023-02-22T08:43:06.688Z,63.27
2023-02-22T08:45:33.549Z,63.34
2023-02-22T08:48:02.480Z,63.02
2023-02-22T08:50:38.328Z,62.68
2023-02-22T08:53:09.348Z,62.83
2023-02-22T08:55:41.628Z,62.55
2023-02-22T08:58:13.892Z,62.82
2023-02-22T09:00:41.071Z,62.46
2023-02-22T09:03:09.283Z,62.14
2023-02-22T09:05:35.871Z,61.83
2023-02-22T09:08:02.898Z,61.53
2023-02-22T09:10:30.754Z,61.22
2023-02-22T09:12:57.694Z,60.80
2023-02-22T09:15:28.616Z,60.57
2023-02-22T09:17:55.793Z,60.12
2023-02-22T09:20:25.511Z,59.89
2023-02-22T09:22:53.225Z,58.54
2023-02-22T09:25:30.079Z,55.45
2023-02-22T09:27:59.061Z,56.14
2023-02-22T09:30:45.890Z,54.83
2023-02-22T09:33:18.026Z,54.79
2023-02-22T09:35:54.000Z,53.82
2023-02-22T09:38:26.196Z,51.90
2023-02-22T09:40:55.237Z,53.17
2023-02-22T09:43:55.401Z,53.03
2023-02-22T09:46:24.715Z,52.88
2023-02-22T09:49:01.665Z,54.05
2023-02-22T09:51:55.860Z,53.38
2023-02-22T09:54:58.440Z,52.79
2023-02-22T09:57:37.452Z,52.75
2023-02-22T10:00:17.861Z,52.29
2023-02-22T10:02:48.964Z,52.78
2023-02-22T10:05:20.313Z,52.95
2023-02-22T10:07:53.277Z,51.03
2023-02-22T10:10:26.354Z,51.34
2023-02-22T10:12:55.334Z,51.55
2023-02-22T10:15:32.283Z,51.27
2023-02-22T10:18:01.477Z,51.42
2023-02-22T10:21:00.557Z,51.03
2023-02-22T10:24:58.429Z,50.99
2023-02-22T10:27:48.035Z,50.90
2023-02-22T10:30:25.824Z,50.73
2023-02-22T10:33:03.360Z,50.50
2023-02-22T10:35:35.546Z,49.98
2023-02-22T10:38:20.478Z,49.00
2023-02-22T10:40:50.330Z,48.86
2023-02-22T10:43:20.973Z,48.72
2023-02-22T10:45:53.068Z,48.78
2023-02-22T10:48:21.164Z,48.86
2023-02-22T10:50:51.155Z,49.24
2023-02-22T10:53:24.407Z,48.61
2023-02-22T10:56:21.632Z,49.67
2023-02-22T10:58:48.320Z,51.46
2023-02-22T11:01:41.259Z,50.98
2023-02-22T11:05:06.057Z,50.77
2023-02-22T11:07:36.234Z,50.75
2023-02-22T11:10:10.834Z,50.26
2023-02-22T11:12:40.057Z,50.72
2023-02-22T11:15:19.228Z,51.12
2023-02-22T11:17:48.142Z,51.91
2023-02-22T11:20:25.822Z,52.00
2023-02-22T11:23:01.052Z,52.22
2023-02-22T11:25:45.075Z,52.69
2023-02-22T11:28:20.729Z,52.52
2023-02-22T11:30:51.657Z,52.00
2023-02-22T11:33:29.405Z,52.07
2023-02-22T11:36:07.142Z,51.43
2023-02-22T11:38:37.043Z,51.07
2023-02-22T11:41:22.891Z,51.09
2023-02-22T11:43:54.473Z,52.48
2023-02-22T11:46:34.852Z,52.13
2023-02-22T11:49:06.079Z,51.73
2023-02-22T11:51:45.116Z,51.37
2023-02-22T11:54:39.440Z,51.00
2023-02-22T11:57:26.524Z,50.75
2023-02-22T12:00:35.846Z,50.73
2023-02-22T12:03:40.439Z,50.19
2023-02-22T12:06:34.591Z,50.51
2023-02-22T12:09:34.687Z,50.65
2023-02-22T12:12:43.303Z,50.76
2023-02-22T12:15:30.208Z,51.16
2023-02-22T12:18:32.476Z,50.55
2023-02-22T12:21:07.649Z,50.30
2023-02-22T12:24:03.293Z,50.25
2023-02-22T12:33:38.524Z,51.12
2023-02-22T12:36:14.730Z,51.61
2023-02-22T12:39:28.766Z,50.41
2023-02-22T12:41:59.371Z,50.92
2023-02-22T12:44:55.436Z,50.60
2023-02-22T12:47:51.962Z,50.80
2023-02-22T12:50:37.910Z,51.46
2023-02-22T12:53:29.498Z,51.88
2023-02-22T12:56:22.102Z,52.55
2023-02-22T12:59:04.676Z,51.98
2023-02-22T13:01:45.566Z,52.28
2023-02-22T13:04:21.452Z,51.54
2023-02-22T13:07:23.852Z,51.02
2023-02-22T13:10:35.431Z,51.19
2023-02-22T13:13:20.244Z,51.24
2023-02-22T13:16:29.322Z,51.64
2023-02-22T13:19:15.527Z,51.72
2023-02-22T13:22:00.984Z,51.65
2023-02-22T13:24:56.922Z,51.63
2023-02-22T13:27:34.698Z,52.61
2023-02-22T13:30:06.188Z,52.75
2023-02-22T13:32:45.606Z,52.43
2023-02-22T13:35:18.377Z,52.81
2023-02-22T13:38:23.113Z,52.48
2023-02-22T13:40:54.458Z,52.51
2023-02-22T13:47:17.081Z,53.09
2023-02-22T13:50:02.029Z,53.08
2023-02-22T13:52:33.107Z,53.07
2023-02-22T13:55:11.213Z,53.01
2023-02-22T13:57:51.521Z,53.17
2023-02-22T14:00:21.927Z,53.32
2023-02-22T14:03:10.585Z,52.51
2023-02-22T14:05:49.613Z,52.06
2023-02-22T14:08:20.771Z,52.16
2023-02-22T14:10:59.015Z,51.84
2023-02-22T14:13:29.311Z,52.12
2023-02-22T14:16:05.145Z,52.05
2023-02-22T14:19:06.652Z,51.80
2023-02-22T14:21:35.331Z,51.75
2023-02-22T14:24:17.617Z,51.83
2023-02-22T14:27:09.105Z,51.26
2023-02-22T14:29:38.952Z,51.36
2023-02-22T14:32:17.839Z,51.91
2023-02-22T14:34:51.232Z,52.86
2023-02-22T14:37:28.412Z,53.23
2023-02-22T14:40:14.300Z,53.25
2023-02-22T14:42:48.536Z,54.06
2023-02-22T14:45:23.627Z,53.25
2023-02-22T14:48:04.124Z,53.72
2023-02-22T14:50:39.917Z,53.50
2023-02-22T14:53:23.537Z,53.37
2023-02-22T14:55:56.788Z,53.84
2023-02-22T14:58:52.314Z,54.31
2023-02-22T15:01:21.589Z,54.24
2023-02-22T15:04:02.096Z,54.38
2023-02-22T15:06:35.559Z,54.87
2023-02-22T15:09:28.965Z,55.13
2023-02-22T15:12:10.314Z,55.41
2023-02-22T15:14:41.289Z,55.12
2023-02-22T15:17:20.772Z,55.13
2023-02-22T15:19:56.449Z,55.38
2023-02-22T15:22:27.437Z,55.03
2023-02-22T15:25:05.368Z,53.92
2023-02-22T15:27:36.997Z,53.83
2023-02-22T15:30:33.067Z,54.46
2023-02-22T15:33:29.950Z,55.34
2023-02-22T15:36:01.108Z,56.44
2023-02-22T15:38:30.679Z,56.64
2023-02-22T15:41:05.976Z,56.99
2023-02-22T15:43:35.217Z,57.59
2023-02-22T15:46:06.868Z,57.73
2023-02-22T15:48:37.546Z,57.85
2023-02-22T15:51:12.004Z,57.88
2023-02-22T15:53:43.179Z,57.56
2023-02-22T15:56:14.871Z,57.63
2023-02-22T15:58:46.812Z,57.20
2023-02-22T16:01:18.954Z,57.38
2023-02-22T16:04:01.037Z,57.40
2023-02-22T16:07:00.584Z,57.24
2023-02-22T16:09:30.642Z,57.27
2023-02-22T16:12:11.055Z,57.63
2023-02-22T16:14:40.675Z,57.93
2023-02-22T16:20:45.149Z,57.98
2023-02-22T16:23:47.905Z,57.89
2023-02-22T16:26:26.071Z,58.07
2023-02-22T16:31:59.549Z,59.98
2023-02-22T16:34:26.848Z,60.88
2023-02-22T16:36:55.681Z,61.50
2023-02-22T16:39:32.891Z,61.67
2023-02-22T16:42:03.965Z,61.99
2023-02-22T16:44:30.767Z,62.30
2023-02-22T16:46:59.169Z,62.59
2023-02-22T16:49:26.428Z,62.78
2023-02-22T16:51:55.460Z,62.94
2023-02-22T16:54:34.548Z,63.46
2023-02-22T16:57:04.137Z,63.74
2023-02-22T17:00:01.505Z,63.97
2023-02-22T17:02:40.253Z,63.88
2023-02-22T17:05:37.779Z,63.64
2023-02-22T17:08:18.315Z,64.22
2023-02-22T17:10:46.479Z,64.65
2023-02-22T17:13:37.288Z,64.99
2023-02-22T17:16:06.639Z,65.29
2023-02-22T17:18:36.797Z,65.76
2023-02-22T17:21:03.892Z,65.92
2023-02-22T17:23:30.783Z,66.23
2023-02-22T17:26:03.662Z,65.57
2023-02-22T17:28:33.952Z,65.88
2023-02-22T17:31:05.389Z,66.00
2023-02-22T17:33:34.742Z,66.02
2023-02-22T17:36:13.429Z,65.96
2023-02-22T17:38:45.458Z,65.99
2023-02-22T17:41:15.127Z,66.05
2023-02-22T17:43:41.982Z,66.34
2023-02-22T17:46:08.966Z,66.82
2023-02-22T17:48:41.491Z,66.63
2023-02-22T17:51:11.029Z,66.60
2023-02-22T17:53:41.572Z,67.03
2023-02-22T17:56:13.892Z,67.55
2023-02-22T17:58:42.111Z,67.79
2023-02-22T18:01:32.903Z,67.00
2023-02-22T18:04:01.691Z,66.88
2023-02-22T18:06:33.168Z,67.16
2023-02-22T18:09:01.395Z,67.43
2023-02-22T18:11:35.460Z,67.80
2023-02-22T18:14:02.279Z,68.47
2023-02-22T18:16:29.107Z,68.68
2023-02-22T18:18:55.929Z,68.61
2023-02-22T18:21:23.603Z,68.45
2023-02-22T18:23:55.532Z,67.98
2023-02-22T18:26:22.791Z,67.41
2023-02-22T18:28:50.771Z,67.21
2023-02-22T18:31:24.015Z,67.32
2023-02-22T18:33:54.832Z,67.84
2023-02-22T18:36:24.335Z,68.07
2023-02-22T18:38:54.077Z,68.32
2023-02-22T18:41:21.643Z,68.62
2023-02-22T18:43:48.237Z,68.47
2023-02-22T18:46:21.762Z,68.67
2023-02-22T18:48:53.530Z,68.83
2023-02-22T18:51:20.021Z,69.07
2023-02-22T18:53:50.536Z,69.20
2023-02-22T18:56:22.038Z,69.90
2023-02-22T18:58:52.592Z,70.19
2023-02-22T19:01:19.144Z,70.11
2023-02-22T19:03:48.882Z,70.08
2023-02-22T19:06:19.011Z,70.31
2023-02-22T19:08:46.070Z,70.17
2023-02-22T19:11:20.154Z,70.41
2023-02-22T19:13:47.637Z,70.95
2023-02-22T19:16:20.042Z,71.07
2023-02-22T19:18:47.358Z,71.15
2023-02-22T19:21:14.694Z,71.40
2023-02-22T19:23:49.540Z,71.52
2023-02-22T19:26:24.159Z,71.59
2023-02-22T19:28:57.015Z,71.68
2023-02-22T19:31:33.932Z,71.57
2023-02-22T19:34:09.158Z,71.45
2023-02-22T19:36:43.739Z,71.54
2023-02-22T19:39:10.741Z,71.59
2023-02-22T19:41:39.318Z,71.39
2023-02-22T19:44:09.078Z,71.21
2023-02-22T19:46:36.123Z,71.54
2023-02-22T19:49:04.008Z,71.29
2023-02-22T19:51:31.837Z,71.52
2023-02-22T19:54:03.886Z,71.85
2023-02-22T19:56:36.604Z,71.83
2023-02-22T19:59:20.021Z,72.11
2023-02-22T20:01:46.920Z,72.17
2023-02-22T20:04:21.526Z,72.17
2023-02-22T20:06:54.733Z,72.22
2023-02-22T20:09:31.918Z,72.13
2023-02-22T20:12:00.432Z,71.56
2023-02-22T20:14:28.662Z,71.28
2023-02-22T20:16:59.528Z,71.22
2023-02-22T20:19:26.903Z,71.17
2023-02-22T20:21:56.748Z,71.67
2023-02-22T20:24:25.011Z,71.56
2023-02-22T20:26:58.953Z,71.64
2023-02-22T20:29:31.432Z,71.60
2023-02-22T20:32:00.137Z,71.74
2023-02-22T20:34:31.202Z,71.72
2023-02-22T20:37:03.323Z,72.16
2023-02-22T20:39:30.129Z,72.41
2023-02-22T20:42:00.506Z,72.63
2023-02-22T20:44:27.258Z,72.47
2023-02-22T20:46:56.979Z,72.52
2023-02-22T20:49:23.580Z,72.98
2023-02-22T20:51:50.302Z,73.20
2023-02-22T20:54:25.880Z,73.04
2023-02-22T20:56:53.226Z,73.42
2023-02-22T20:59:21.100Z,73.64
2023-02-22T21:01:49.489Z,73.54
2023-02-22T21:04:18.798Z,73.74
2023-02-22T21:06:49.737Z,73.87
2023-02-22T21:09:20.713Z,73.92
2023-02-22T21:11:47.704Z,74.22
2023-02-22T21:14:18.696Z,74.48
2023-02-22T21:16:52.239Z,74.87
2023-02-22T21:19:29.024Z,75.13
2023-02-22T21:21:57.995Z,75.26
2023-02-22T21:24:26.236Z,75.54
2023-02-22T21:26:52.936Z,75.74
2023-02-22T21:29:28.234Z,75.74
2023-02-22T21:31:57.826Z,75.67
2023-02-22T21:34:25.775Z,76.03
2023-02-22T21:36:53.380Z,76.37
2023-02-22T21:39:28.169Z,76.22
2023-02-22T21:42:00.270Z,76.32
2023-02-22T21:44:27.413Z,76.10
2023-02-22T21:46:56.715Z,76.24
2023-02-22T21:49:23.526Z,76.35
2023-02-22T21:51:51.794Z,76.55
2023-02-22T21:54:19.272Z,76.70
2023-02-22T21:56:53.804Z,76.63
2023-02-22T21:59:23.824Z,77.59
2023-02-22T22:01:58.235Z,78.16
2023-02-22T22:04:30.587Z,78.33
2023-02-22T22:07:04.411Z,78.38
2023-02-22T22:09:37.625Z,78.21
2023-02-22T22:12:10.764Z,77.74
2023-02-22T22:14:38.079Z,77.57
2023-02-22T22:17:07.122Z,77.32
2023-02-22T22:19:51.796Z,77.46
2023-02-22T22:22:23.210Z,77.73
2023-02-22T22:24:53.946Z,78.21
2023-02-22T22:27:21.351Z,78.58
2023-02-22T22:29:47.981Z,79.21
2023-02-22T22:32:20.751Z,79.51
2023-02-22T22:34:49.920Z,79.02
2023-02-22T22:37:19.450Z,78.26
2023-02-22T22:39:46.062Z,78.60
2023-02-22T22:42:14.856Z,80.08
2023-02-22T22:44:45.646Z,81.24
2023-02-22T22:47:13.396Z,81.62
2023-02-22T22:49:40.503Z,81.78
2023-02-22T22:52:10.228Z,81.77
2023-02-22T22:54:38.376Z,82.40
2023-02-22T22:57:06.476Z,83.22
2023-02-22T22:59:35.340Z,81.98
2023-02-22T23:02:10.777Z,80.41
2023-02-22T23:04:38.232Z,80.68
2023-02-22T23:07:07.719Z,81.74
2023-02-22T23:09:37.524Z,81.84
2023-02-22T23:12:31.678Z,82.11
2023-02-22T23:14:58.517Z,80.71
2023-02-22T23:17:31.713Z,80.34
2023-02-22T23:19:58.329Z,79.85
2023-02-22T23:22:27.995Z,79.87
2023-02-22T23:24:55.517Z,80.14
2023-02-22T23:27:24.826Z,80.63
2023-02-22T23:29:52.544Z,81.14
2023-02-22T23:32:23.166Z,80.99
2023-02-22T23:34:49.918Z,80.67
2023-02-22T23:37:20.933Z,80.67
2023-02-22T23:39:51.160Z,80.33
2023-02-22T23:42:25.815Z,80.70
2023-02-22T23:44:55.874Z,80.42
2023-02-22T23:47:29.892Z,80.54
2023-02-22T23:50:04.180Z,80.59
2023-02-22T23:52:33.587Z,80.66
2023-02-22T23:55:04.651Z,81.00
2023-02-22T23:57:32.853Z,80.93
